Vacaville, California
Current Conditions -  °F | °C
As of 8:53 PM on Friday 24 Oct 2014 (Local Time) from KVCB Reporting Station
Clear Clear  
Wind Chill: 65°   Ceiling: Unl
Heat Index: 65°   Visibility: 10mi
Dew Point: 52°   Wind: 10mph
Humidity: 63%   Direction: 210°SSW
Pressure: 29.88"   Gusts: 16mph
Location:  38.35°N, 121.99°W
Report Text: KVCB 250353Z AUTO 21009G14KT 10SM CLR 18/11 A2988 RMK AO2 SLP118 T01830111 TSNO
Loading
Personal Weather Stations






























Interactive Weather Map
Tropical Storm Tracking
New forecast layout! Learn more

10-Day Weather Forecast

Advertisements
Track Severe Weather on mobile